Time;durP1;ratioP1;P1;durP2;ratioP2;P2;SDS_P1;SDS_P2;PMS_P1;PMS_P2;Temp;Humidity;BMP_temperature;BMP_pressure;BME280_temperature;BME280_humidity;BME280_pressure;Samples;Min_cycle;Max_cycle;Signal;HPM_P1;HPM_P2
2023/07/05 00:00:55;;;;;;;1.75;1.00;;;;;;;18.41;100.00;98004.94;4168537;28;20253;-51
2023/07/05 00:02:57;;;;;;;2.13;0.80;;;;;;;18.17;100.00;98005.16;4141432;28;20294;-50
2023/07/05 00:04:59;;;;;;;1.08;0.95;;;;;;;18.24;100.00;97999.22;4121782;28;20210;-50
2023/07/05 00:07:00;;;;;;;1.23;1.13;;;;;;;18.14;100.00;97999.44;4147847;28;20235;-51
2023/07/05 00:09:02;;;;;;;2.85;0.80;;;;;;;18.00;100.00;98001.41;4148340;28;20287;-50
2023/07/05 00:11:05;;;;;;;3.35;1.17;;;;;;;17.87;100.00;97993.94;4151176;28;20216;-50
2023/07/05 00:13:07;;;;;;;4.47;1.38;;;;;;;17.90;100.00;98004.38;4152476;28;20215;-50
2023/07/05 00:15:09;;;;;;;2.22;1.10;;;;;;;17.73;100.00;98006.97;4141430;28;20230;-53
2023/07/05 00:17:11;;;;;;;3.78;1.63;;;;;;;17.84;100.00;97992.59;4152178;28;20224;-50
2023/07/05 00:19:13;;;;;;;2.00;1.30;;;;;;;17.90;100.00;97998.84;4151736;28;20228;-51
2023/07/05 00:21:15;;;;;;;3.95;1.45;;;;;;;17.90;100.00;97977.53;4133394;28;20206;-51
2023/07/05 00:23:16;;;;;;;3.53;1.33;;;;;;;17.89;100.00;97986.13;4138693;28;20205;-50
2023/07/05 00:25:19;;;;;;;3.35;1.50;;;;;;;17.71;100.00;97987.09;4138207;28;20206;-52
2023/07/05 00:27:21;;;;;;;2.42;1.00;;;;;;;17.75;100.00;97979.81;4136827;28;20233;-51
2023/07/05 00:29:23;;;;;;;2.75;1.60;;;;;;;17.67;100.00;97966.69;4138266;28;20619;-50
2023/07/05 00:31:25;;;;;;;2.60;1.33;;;;;;;17.68;100.00;97962.78;4137460;28;20217;-52
2023/07/05 00:33:27;;;;;;;2.17;1.35;;;;;;;17.67;100.00;97950.94;4134584;28;20297;-51
2023/07/05 00:35:29;;;;;;;1.67;1.40;;;;;;;17.66;100.00;97945.69;4150431;28;20294;-50
2023/07/05 00:37:31;;;;;;;5.50;1.65;;;;;;;17.63;100.00;97951.81;4137186;28;20296;-50
2023/07/05 00:39:33;;;;;;;1.33;1.20;;;;;;;17.70;100.00;97941.16;4136920;28;20209;-52
2023/07/05 00:41:35;;;;;;;3.95;1.60;;;;;;;17.85;100.00;97949.16;4136286;28;20272;-51
2023/07/05 00:43:37;;;;;;;4.68;1.63;;;;;;;17.69;100.00;97945.06;4152841;28;20212;-51
2023/07/05 00:45:53;;;;;;;7.20;1.40;;;;;;;17.68;100.00;97952.56;4141756;28;20209;-50
2023/07/05 00:47:56;;;;;;;2.10;1.10;;;;;;;17.49;100.00;97945.47;4148370;28;20209;-51
2023/07/05 00:50:02;;;;;;;2.00;1.30;;;;;;;17.55;100.00;97944.25;4120124;28;20214;-50
2023/07/05 00:52:08;;;;;;;2.75;1.52;;;;;;;17.50;100.00;97947.13;4152662;28;20213;-53
2023/07/05 00:54:10;;;;;;;1.42;1.20;;;;;;;17.66;100.00;97943.72;4137482;28;20243;-53
2023/07/05 00:56:18;;;;;;;1.67;1.08;;;;;;;17.67;100.00;97944.56;4151782;28;20323;-51
2023/07/05 00:58:20;;;;;;;1.20;1.10;;;;;;;17.68;100.00;97940.66;4134088;28;20271;-51
2023/07/05 01:00:22;;;;;;;3.92;1.33;;;;;;;17.59;100.00;97937.78;4146274;28;20216;-51
2023/07/05 01:02:24;;;;;;;1.67;1.17;;;;;;;17.72;100.00;97941.69;4139816;28;22639;-51
2023/07/05 01:04:26;;;;;;;1.83;1.17;;;;;;;17.79;100.00;97931.00;4139839;28;20866;-53
2023/07/05 01:06:27;;;;;;;1.50;0.95;;;;;;;17.88;100.00;97940.22;4126684;28;20330;-51
2023/07/05 01:08:29;;;;;;;1.30;1.08;;;;;;;17.95;100.00;97940.59;4124648;28;20232;-53
2023/07/05 01:10:31;;;;;;;0.88;0.88;;;;;;;18.07;100.00;97938.13;4139775;28;20663;-51
2023/07/05 01:13:05;;;;;;;1.98;1.88;;;;;;;17.98;100.00;97940.00;4144518;28;20682;-52
2023/07/05 01:15:09;;;;;;;1.05;0.95;;;;;;;18.01;100.00;97936.59;4135425;28;20312;-51
2023/07/05 01:17:25;;;;;;;2.05;1.65;;;;;;;18.03;100.00;97942.63;4134242;28;20237;-51
2023/07/05 01:19:47;;;;;;;2.95;1.42;;;;;;;18.09;100.00;97941.38;4147495;28;20205;-51
2023/07/05 01:21:57;;;;;;;2.13;1.15;;;;;;;18.01;100.00;97944.91;4151046;28;20258;-51
2023/07/05 01:24:03;;;;;;;1.65;0.95;;;;;;;18.06;100.00;97936.47;4146991;28;20209;-52
2023/07/05 01:26:11;;;;;;;2.13;1.20;;;;;;;18.06;100.00;97939.25;4152048;28;20722;-50
2023/07/05 01:28:35;;;;;;;1.73;1.23;;;;;;;18.08;100.00;97917.59;4148979;28;20211;-52
2023/07/05 01:30:40;;;;;;;5.45;1.38;;;;;;;18.11;100.00;97919.75;4152083;28;20241;-51
2023/07/05 01:32:54;;;;;;;1.63;1.45;;;;;;;17.99;100.00;97925.81;4146839;28;20205;-51
2023/07/05 01:37:28;;;;;;;1.35;1.05;;;;;;;17.84;100.00;97931.72;4688362;23;21021;-63
2023/07/05 01:39:30;;;;;;;1.42;1.13;;;;;;;17.82;100.00;97933.16;4071302;29;20232;-63
2023/07/05 01:41:31;;;;;;;1.58;1.20;;;;;;;17.84;100.00;97928.13;4069091;29;20750;-64
2023/07/05 01:43:37;;;;;;;1.80;1.10;;;;;;;17.88;100.00;97927.19;4068851;29;20216;-63
2023/07/05 01:45:50;;;;;;;1.83;1.48;;;;;;;17.80;100.00;97938.19;4053844;29;20244;-64
2023/07/05 01:48:03;;;;;;;1.20;1.10;;;;;;;17.86;100.00;97932.22;4068726;29;20260;-64
2023/07/05 01:50:18;;;;;;;1.63;1.20;;;;;;;17.87;100.00;97928.34;4057825;29;20243;-65
2023/07/05 01:52:29;;;;;;;1.30;1.15;;;;;;;17.94;100.00;97927.88;4068626;29;20219;-65
2023/07/05 01:54:39;;;;;;;1.13;1.02;;;;;;;18.00;100.00;97932.19;4077780;29;20308;-64
2023/07/05 01:56:52;;;;;;;1.20;1.08;;;;;;;18.03;100.00;97926.00;4073514;29;20668;-64
2023/07/05 01:58:55;;;;;;;1.33;1.10;;;;;;;18.05;100.00;97929.31;4073041;29;20225;-64
2023/07/05 02:00:58;;;;;;;1.70;1.20;;;;;;;18.01;100.00;97920.81;4072247;29;20252;-64
2023/07/05 02:03:02;;;;;;;1.23;0.98;;;;;;;18.07;100.00;97921.50;4070017;29;20231;-64
2023/07/05 02:05:04;;;;;;;1.42;1.15;;;;;;;18.05;100.00;97918.22;4070415;29;20340;-65
2023/07/05 02:07:06;;;;;;;1.10;1.00;;;;;;;18.06;100.00;97919.88;4071014;29;20243;-64
2023/07/05 02:09:08;;;;;;;1.20;0.80;;;;;;;18.16;100.00;97914.06;4071759;29;20344;-63
2023/07/05 02:11:09;;;;;;;1.23;1.13;;;;;;;18.15;100.00;97920.75;4070144;29;20259;-64
2023/07/05 02:13:12;;;;;;;1.63;1.17;;;;;;;18.04;100.00;97906.31;4070889;29;20335;-63
2023/07/05 02:15:14;;;;;;;1.35;0.98;;;;;;;18.01;100.00;97903.34;4071886;29;20239;-64
2023/07/05 02:17:16;;;;;;;4.30;1.20;;;;;;;18.02;100.00;97907.75;4070045;29;20568;-64
2023/07/05 02:19:18;;;;;;;1.48;1.23;;;;;;;18.09;100.00;97897.06;4072426;29;20285;-64
2023/07/05 02:21:20;;;;;;;2.05;1.10;;;;;;;17.99;100.00;97897.31;4074099;29;20782;-64
2023/07/05 02:23:22;;;;;;;1.25;0.98;;;;;;;17.99;100.00;97892.59;4073730;29;21012;-64
2023/07/05 02:25:23;;;;;;;7.65;1.00;;;;;;;18.01;100.00;97906.13;4072212;29;20215;-64
2023/07/05 02:27:26;;;;;;;2.13;1.00;;;;;;;17.90;100.00;97899.19;4072006;29;20632;-65
2023/07/05 02:29:31;;;;;;;3.28;1.20;;;;;;;17.97;100.00;97888.50;4072163;29;20218;-64
2023/07/05 02:31:34;;;;;;;2.72;1.23;;;;;;;17.94;100.00;97886.38;4071337;29;20271;-65
2023/07/05 02:33:36;;;;;;;1.10;1.00;;;;;;;17.91;100.00;97881.47;4069519;29;20209;-64
2023/07/05 02:35:39;;;;;;;0.98;0.95;;;;;;;17.98;100.00;97879.09;4070821;29;20236;-64
2023/07/05 02:37:40;;;;;;;1.10;1.00;;;;;;;17.90;100.00;97890.88;4074199;29;20275;-65
2023/07/05 02:39:42;;;;;;;2.75;1.20;;;;;;;17.85;100.00;97883.50;4068439;29;20206;-64
2023/07/05 02:41:43;;;;;;;2.70;1.23;;;;;;;17.88;100.00;97887.59;4069646;29;20218;-64
2023/07/05 02:43:45;;;;;;;1.13;1.02;;;;;;;17.77;100.00;97872.34;4072251;29;20212;-65
2023/07/05 02:45:46;;;;;;;2.78;1.10;;;;;;;17.83;100.00;97876.66;4071746;29;20219;-64
2023/07/05 02:47:48;;;;;;;1.65;1.00;;;;;;;17.83;100.00;97898.78;4070222;29;20211;-64
2023/07/05 02:49:49;;;;;;;1.45;1.20;;;;;;;17.83;100.00;97893.25;4069807;29;20236;-64
2023/07/05 02:51:53;;;;;;;1.50;1.40;;;;;;;17.75;100.00;97885.69;4069368;29;20327;-64
2023/07/05 02:53:55;;;;;;;1.63;1.00;;;;;;;17.75;100.00;97902.31;4069290;29;20278;-64
2023/07/05 02:55:57;;;;;;;1.67;1.20;;;;;;;17.82;100.00;97911.00;4071302;29;20312;-64
2023/07/05 02:57:58;;;;;;;1.40;1.30;;;;;;;17.91;100.00;97900.84;4070923;29;20228;-65
2023/07/05 03:00:00;;;;;;;2.45;1.10;;;;;;;17.88;100.00;97904.22;4071398;29;20837;-63
2023/07/05 03:02:02;;;;;;;1.33;1.10;;;;;;;17.88;100.00;97904.22;4069941;29;20242;-65
2023/07/05 03:04:04;;;;;;;1.35;1.08;;;;;;;17.90;100.00;97907.47;4074443;29;20204;-65
2023/07/05 03:06:05;;;;;;;1.27;1.17;;;;;;;17.86;100.00;97895.41;4071709;29;20246;-66
2023/07/05 03:08:07;;;;;;;2.00;1.35;;;;;;;17.87;100.00;97889.56;4071749;29;20245;-64
2023/07/05 03:10:09;;;;;;;5.07;1.30;;;;;;;17.89;100.00;97879.00;4070681;29;20228;-63
2023/07/05 03:12:10;;;;;;;1.40;1.13;;;;;;;17.89;100.00;97878.16;4070235;29;20208;-66
2023/07/05 03:14:12;;;;;;;2.05;1.00;;;;;;;17.77;100.00;97884.25;4070602;29;20336;-66
2023/07/05 03:16:13;;;;;;;2.30;1.30;;;;;;;17.75;100.00;97883.75;4071423;29;20315;-64
2023/07/05 03:18:15;;;;;;;0.80;0.80;;;;;;;17.70;100.00;97883.03;4071446;29;20205;-64
2023/07/05 03:20:17;;;;;;;1.30;1.13;;;;;;;17.72;100.00;97880.78;4071143;29;20228;-65
2023/07/05 03:22:18;;;;;;;1.50;1.30;;;;;;;17.72;100.00;97886.34;4070830;29;20216;-64
2023/07/05 03:24:20;;;;;;;2.97;1.20;;;;;;;17.80;100.00;97886.38;4070721;29;20251;-63
2023/07/05 03:26:24;;;;;;;1.38;1.20;;;;;;;17.75;100.00;97891.22;4069315;29;20232;-63
2023/07/05 03:28:29;;;;;;;2.15;1.30;;;;;;;17.77;100.00;97889.78;4070896;29;20211;-64
2023/07/05 03:30:31;;;;;;;2.00;0.95;;;;;;;17.73;100.00;97883.22;4068140;29;20322;-64
2023/07/05 03:32:33;;;;;;;2.15;1.00;;;;;;;17.71;100.00;97895.78;4083243;28;20287;-64
2023/07/05 03:34:34;;;;;;;1.40;1.30;;;;;;;17.73;100.00;97893.50;4069978;29;20219;-64
2023/07/05 03:36:36;;;;;;;1.20;1.10;;;;;;;17.72;100.00;97900.16;4070242;29;20260;-63
2023/07/05 03:38:38;;;;;;;1.30;1.20;;;;;;;17.67;100.00;97890.03;4070977;29;20315;-65
2023/07/05 03:40:39;;;;;;;2.65;0.82;;;;;;;17.68;100.00;97888.91;4070625;29;20256;-63
2023/07/05 03:42:41;;;;;;;1.40;1.30;;;;;;;17.70;100.00;97880.25;4070374;29;20204;-67
2023/07/05 03:44:43;;;;;;;1.92;1.20;;;;;;;17.64;100.00;97889.84;4079457;28;20211;-64
2023/07/05 03:46:44;;;;;;;1.63;1.00;;;;;;;17.63;100.00;97897.31;4067599;29;20286;-63
2023/07/05 03:48:46;;;;;;;2.38;1.08;;;;;;;17.63;100.00;97899.25;4070354;29;20212;-65
2023/07/05 03:50:48;;;;;;;1.05;1.00;;;;;;;17.60;100.00;97900.69;4071572;29;20597;-65
2023/07/05 03:52:49;;;;;;;1.88;1.02;;;;;;;17.57;100.00;97912.38;4066428;29;20789;-64
2023/07/05 03:54:51;;;;;;;2.95;1.45;;;;;;;17.56;100.00;97902.44;4068312;29;20237;-65
2023/07/05 03:56:52;;;;;;;2.20;1.20;;;;;;;17.61;100.00;97907.88;4068489;29;20238;-65
2023/07/05 03:58:54;;;;;;;2.28;1.15;;;;;;;17.66;100.00;97902.22;4073280;29;20212;-64
2023/07/05 04:01:07;;;;;;;0.90;0.80;;;;;;;17.71;100.00;97906.84;4069551;29;20691;-65
2023/07/05 04:03:09;;;;;;;1.52;1.30;;;;;;;17.68;100.00;97899.97;4072649;29;20220;-65
2023/07/05 04:05:11;;;;;;;5.03;1.02;;;;;;;17.53;100.00;97905.81;4059964;29;20884;-64
2023/07/05 04:07:12;;;;;;;2.00;1.20;;;;;;;17.58;100.00;97902.16;4071826;29;20212;-66
2023/07/05 04:09:14;;;;;;;2.15;1.48;;;;;;;17.56;100.00;97887.78;4072871;29;20763;-65
2023/07/05 04:11:15;;;;;;;1.27;1.13;;;;;;;17.57;100.00;97908.78;4073418;29;20246;-63
2023/07/05 04:13:17;;;;;;;1.77;1.48;;;;;;;17.69;100.00;97942.28;4072193;29;20232;-64
2023/07/05 04:15:19;;;;;;;2.90;1.30;;;;;;;17.73;100.00;97959.94;4073834;29;20216;-65
2023/07/05 04:17:21;;;;;;;4.05;2.05;;;;;;;17.37;100.00;97964.53;4073624;29;20723;-65
2023/07/05 04:19:22;;;;;;;2.63;1.88;;;;;;;17.45;100.00;97974.91;4075068;29;21580;-64
2023/07/05 04:21:25;;;;;;;2.08;1.65;;;;;;;17.18;100.00;97969.34;4073108;29;20251;-67
2023/07/05 04:23:27;;;;;;;2.85;2.63;;;;;;;16.81;100.00;97963.94;4083828;28;20208;-64
2023/07/05 04:25:29;;;;;;;2.30;2.10;;;;;;;16.86;100.00;97988.72;4072736;29;20301;-63
2023/07/05 04:27:31;;;;;;;5.75;2.65;;;;;;;16.39;100.00;98000.00;4064852;29;20299;-64
2023/07/05 04:29:34;;;;;;;3.38;3.08;;;;;;;16.35;100.00;97998.13;4065938;29;20216;-63
2023/07/05 04:31:35;;;;;;;5.75;3.25;;;;;;;16.26;100.00;97978.63;4070330;29;20761;-64
2023/07/05 04:33:37;;;;;;;5.38;4.13;;;;;;;16.22;100.00;97988.63;4071153;29;20267;-62
2023/07/05 04:35:45;;;;;;;5.38;2.92;;;;;;;16.10;100.00;98006.78;4066643;29;20213;-63
2023/07/05 04:37:47;;;;;;;7.35;3.20;;;;;;;16.01;100.00;98009.38;4056714;29;20550;-63
2023/07/05 04:39:48;;;;;;;12.13;3.40;;;;;;;15.94;100.00;98022.72;4068849;29;20208;-62
2023/07/05 04:41:50;;;;;;;5.28;3.08;;;;;;;16.03;100.00;98023.69;4067062;29;20659;-62
2023/07/05 04:43:52;;;;;;;3.17;2.88;;;;;;;15.90;100.00;98029.94;4067809;29;20238;-64
2023/07/05 04:45:56;;;;;;;2.47;2.28;;;;;;;15.78;100.00;98026.78;4065955;29;20208;-63
2023/07/05 04:47:57;;;;;;;3.90;3.55;;;;;;;15.92;100.00;98029.63;4055513;29;20208;-64
2023/07/05 04:49:59;;;;;;;3.55;2.85;;;;;;;15.79;100.00;98033.94;4068712;29;20240;-61
2023/07/05 04:52:01;;;;;;;6.22;3.08;;;;;;;15.78;100.00;98039.75;4069199;29;20247;-63
2023/07/05 04:54:02;;;;;;;4.20;3.10;;;;;;;15.64;100.00;98036.88;4068962;29;20295;-63
2023/07/05 04:56:04;;;;;;;3.40;2.97;;;;;;;15.74;100.00;98036.78;4064700;29;20266;-62
2023/07/05 04:58:06;;;;;;;3.55;3.25;;;;;;;15.93;100.00;98043.16;4068297;29;20212;-62
2023/07/05 05:00:08;;;;;;;8.35;3.08;;;;;;;16.01;100.00;98042.50;4069428;29;20231;-63
2023/07/05 05:02:10;;;;;;;2.55;2.35;;;;;;;15.86;100.00;98045.44;4055084;29;20304;-62
2023/07/05 05:04:12;;;;;;;4.90;3.20;;;;;;;16.04;100.00;98043.84;4082555;28;20212;-63
2023/07/05 05:06:14;;;;;;;5.47;3.50;;;;;;;16.13;100.00;98045.63;4068562;29;20216;-63
2023/07/05 05:08:15;;;;;;;4.63;3.17;;;;;;;16.13;100.00;98051.16;4071065;29;20209;-63
2023/07/05 05:10:17;;;;;;;3.20;2.85;;;;;;;16.05;100.00;98049.06;4070771;29;20315;-63
2023/07/05 05:12:19;;;;;;;3.58;3.25;;;;;;;16.04;100.00;98046.59;4072757;29;20306;-63
2023/07/05 05:14:21;;;;;;;2.55;2.25;;;;;;;15.97;100.00;98046.13;4069576;29;20211;-63
2023/07/05 05:16:22;;;;;;;3.10;2.80;;;;;;;15.76;100.00;98062.13;4064962;29;20627;-61
2023/07/05 05:18:27;;;;;;;2.78;2.45;;;;;;;15.84;100.00;98068.94;4065326;29;20208;-63
2023/07/05 05:20:30;;;;;;;3.20;2.65;;;;;;;15.69;100.00;98061.66;4070041;29;20223;-62
2023/07/05 05:22:32;;;;;;;3.50;2.83;;;;;;;15.59;100.00;98069.22;4069262;29;20315;-62
2023/07/05 05:24:33;;;;;;;4.70;2.38;;;;;;;15.66;100.00;98077.97;4071453;29;20751;-64
2023/07/05 05:26:35;;;;;;;3.47;3.10;;;;;;;15.77;100.00;98088.59;4073795;29;20579;-63
2023/07/05 05:28:37;;;;;;;3.28;2.97;;;;;;;15.82;100.00;98087.72;4071776;29;20219;-62
2023/07/05 05:30:40;;;;;;;8.85;3.13;;;;;;;15.71;100.00;98098.03;4073308;29;20732;-62
2023/07/05 05:32:46;;;;;;;3.33;3.03;;;;;;;15.97;100.00;98102.16;4069624;29;20212;-63
2023/07/05 05:34:47;;;;;;;3.13;2.90;;;;;;;15.99;100.00;98090.81;4072533;29;20218;-64
2023/07/05 05:36:49;;;;;;;5.22;3.25;;;;;;;16.06;100.00;98099.56;4068669;29;20318;-62
2023/07/05 05:38:50;;;;;;;3.40;2.95;;;;;;;15.81;100.00;98092.41;4072678;29;20280;-64
2023/07/05 05:41:00;;;;;;;3.72;3.30;;;;;;;15.72;100.00;98093.34;4073914;29;20247;-64
2023/07/05 05:43:01;;;;;;;3.65;2.38;;;;;;;15.99;100.00;98094.41;4063359;29;20734;-64
2023/07/05 05:45:04;;;;;;;3.55;3.08;;;;;;;16.02;100.00;98104.84;4074869;29;20303;-64
2023/07/05 05:47:05;;;;;;;3.53;3.22;;;;;;;16.04;100.00;98101.81;4082965;28;20200;-63
2023/07/05 05:49:07;;;;;;;4.85;4.00;;;;;;;16.10;100.00;98115.22;4072355;29;20215;-65
2023/07/05 05:51:08;;;;;;;4.55;4.25;;;;;;;16.36;100.00;98111.03;4070056;29;20224;-65
2023/07/05 05:53:11;;;;;;;4.05;3.20;;;;;;;16.38;100.00;98119.88;4068484;29;20209;-65
2023/07/05 05:55:13;;;;;;;4.97;4.10;;;;;;;16.11;100.00;98114.13;4071281;29;20219;-67
2023/07/05 05:57:14;;;;;;;4.78;4.38;;;;;;;16.11;100.00;98119.66;4067964;29;20699;-62
2023/07/05 05:59:16;;;;;;;4.53;4.13;;;;;;;16.25;100.00;98120.59;4073769;29;20648;-63
2023/07/05 06:01:19;;;;;;;4.75;4.32;;;;;;;16.39;99.46;98112.41;4073517;29;20236;-65
2023/07/05 06:03:21;;;;;;;4.50;4.10;;;;;;;16.44;99.83;98124.19;4073042;29;20762;-63
2023/07/05 06:05:24;;;;;;;8.23;3.25;;;;;;;16.27;99.33;98123.84;4070999;29;20213;-66
2023/07/05 06:07:27;;;;;;;3.88;3.47;;;;;;;16.06;97.55;98127.16;4073294;29;20299;-64
2023/07/05 06:09:28;;;;;;;4.03;3.60;;;;;;;15.91;99.00;98130.91;4072525;29;20564;-64
2023/07/05 06:11:30;;;;;;;4.05;3.42;;;;;;;16.12;99.27;98140.63;4070158;29;20240;-65
2023/07/05 06:13:32;;;;;;;4.10;3.80;;;;;;;16.20;98.90;98133.59;4077274;29;20236;-65
2023/07/05 06:15:34;;;;;;;6.07;4.78;;;;;;;16.01;99.20;98130.81;4055738;29;20213;-67
2023/07/05 06:17:36;;;;;;;6.40;4.20;;;;;;;16.10;98.22;98140.06;4070741;29;20262;-65
2023/07/05 06:19:38;;;;;;;4.25;3.85;;;;;;;16.41;96.81;98144.13;4068879;29;20246;-65
2023/07/05 06:21:39;;;;;;;3.75;3.45;;;;;;;16.48;93.25;98141.84;4060700;29;20212;-63
2023/07/05 06:23:41;;;;;;;3.85;3.55;;;;;;;16.53;91.83;98144.53;4071286;29;20216;-63
2023/07/05 06:25:47;;;;;;;3.45;3.15;;;;;;;16.35;90.36;98150.00;4070035;29;20211;-67
2023/07/05 06:27:49;;;;;;;5.40;3.78;;;;;;;16.37;91.62;98156.84;4069122;29;20207;-65
2023/07/05 06:29:50;;;;;;;3.97;3.35;;;;;;;16.57;93.49;98145.56;4058205;29;20251;-67
2023/07/05 06:31:52;;;;;;;3.80;3.42;;;;;;;16.55;89.71;98152.53;4071266;29;20212;-64
2023/07/05 06:33:55;;;;;;;3.85;3.45;;;;;;;16.74;88.79;98154.16;4069314;29;20204;-65
2023/07/05 06:36:00;;;;;;;5.82;3.50;;;;;;;16.70;90.43;98147.59;4071413;29;20616;-65
2023/07/05 06:38:02;;;;;;;3.45;3.15;;;;;;;16.64;89.29;98151.53;4070891;29;20271;-64
2023/07/05 06:40:04;;;;;;;5.47;3.65;;;;;;;16.51;89.80;98157.81;4069386;29;20412;-66
2023/07/05 06:42:05;;;;;;;4.22;3.65;;;;;;;16.35;89.84;98161.84;4070751;29;20604;-64
2023/07/05 06:44:07;;;;;;;4.35;3.95;;;;;;;16.29;91.25;98168.56;4071666;29;20212;-64
2023/07/05 06:46:09;;;;;;;7.28;3.58;;;;;;;16.64;90.21;98157.06;4071910;29;20265;-67
2023/07/05 06:48:10;;;;;;;4.47;4.07;;;;;;;16.50;88.50;98167.22;4078134;29;20773;-64
2023/07/05 06:50:13;;;;;;;3.95;3.50;;;;;;;16.68;87.50;98166.41;4073312;29;20793;-64
2023/07/05 06:52:15;;;;;;;3.25;2.80;;;;;;;16.98;87.88;98171.50;4071868;29;20325;-66
2023/07/05 06:54:18;;;;;;;3.53;3.22;;;;;;;17.08;85.27;98174.09;4068263;29;20216;-65
2023/07/05 06:56:20;;;;;;;3.42;3.13;;;;;;;16.94;84.22;98173.22;4075041;29;20219;-66
2023/07/05 06:58:21;;;;;;;3.10;2.50;;;;;;;17.03;82.59;98172.25;4073647;29;20242;-67
2023/07/05 07:00:23;;;;;;;6.10;2.97;;;;;;;17.13;79.91;98190.63;4077167;29;20270;-67
2023/07/05 07:02:27;;;;;;;2.70;2.33;;;;;;;16.89;78.39;98187.09;4071649;29;20212;-66
2023/07/05 07:04:29;;;;;;;3.30;2.88;;;;;;;16.81;79.71;98190.56;4073867;29;20216;-68
2023/07/05 07:06:32;;;;;;;2.92;2.72;;;;;;;16.77;80.16;98189.50;4071222;29;20214;-67
2023/07/05 07:08:37;;;;;;;16.63;3.20;;;;;;;16.55;78.87;98200.28;4070065;29;20304;-66
2023/07/05 07:10:38;;;;;;;3.17;2.33;;;;;;;16.69;80.01;98208.69;4071812;29;20236;-66
2023/07/05 07:12:40;;;;;;;5.88;2.88;;;;;;;16.56;78.54;98199.19;4072932;29;20699;-66
2023/07/05 07:14:42;;;;;;;3.03;2.63;;;;;;;16.52;80.23;98220.25;4057145;29;20245;-67
2023/07/05 07:16:44;;;;;;;3.92;2.88;;;;;;;16.44;79.72;98220.88;4074823;29;20224;-68
2023/07/05 07:18:47;;;;;;;2.80;2.50;;;;;;;16.36;79.61;98221.50;4071398;29;20204;-66
2023/07/05 07:20:54;;;;;;;2.40;2.20;;;;;;;16.65;79.58;98222.28;4072594;29;20389;-71
2023/07/05 07:22:56;;;;;;;5.88;3.00;;;;;;;16.65;78.08;98230.56;4071253;29;20219;-67
2023/07/05 07:24:57;;;;;;;3.25;2.92;;;;;;;16.85;77.14;98241.38;4070164;29;20256;-68
2023/07/05 07:27:02;;;;;;;3.22;2.17;;;;;;;17.04;76.29;98240.25;4063604;29;20205;-69
2023/07/05 07:29:04;;;;;;;5.10;2.60;;;;;;;16.92;76.49;98248.16;4072995;29;20214;-66
2023/07/05 07:31:17;;;;;;;3.85;2.88;;;;;;;17.10;76.68;98254.81;4072020;29;20295;-66
2023/07/05 07:33:19;;;;;;;6.35;2.67;;;;;;;17.21;76.27;98253.56;4058055;29;20220;-67
2023/07/05 07:35:20;;;;;;;2.88;2.33;;;;;;;17.11;75.10;98253.72;4071436;29;20636;-67
2023/07/05 07:37:22;;;;;;;3.00;2.35;;;;;;;16.84;74.21;98261.81;4068393;29;20244;-74
2023/07/05 07:39:24;;;;;;;3.05;2.17;;;;;;;16.97;74.74;98272.13;4077400;29;20556;-69
2023/07/05 07:41:43;;;;;;;3.13;2.20;;;;;;;17.22;73.19;98269.03;4071131;29;20228;-66
2023/07/05 07:43:46;;;;;;;4.45;2.80;;;;;;;17.44;74.01;98272.06;4075625;29;20386;-67
2023/07/05 07:45:47;;;;;;;4.22;2.13;;;;;;;17.09;73.84;98286.34;4066088;29;20655;-67
2023/07/05 07:47:49;;;;;;;2.83;2.17;;;;;;;16.81;73.37;98280.91;4069596;29;20204;-67
2023/07/05 07:49:51;;;;;;;2.97;2.67;;;;;;;16.78;72.94;98282.38;4065731;29;20208;-66
2023/07/05 07:51:52;;;;;;;2.60;2.40;;;;;;;16.81;74.43;98295.56;4078677;28;20208;-68
2023/07/05 07:53:54;;;;;;;3.30;2.10;;;;;;;16.74;73.62;98300.63;4046700;29;20255;-67
2023/07/05 07:55:57;;;;;;;3.15;2.10;;;;;;;16.90;73.59;98293.78;4052944;29;20208;-67
2023/07/05 07:57:58;;;;;;;3.15;2.38;;;;;;;16.99;72.40;98303.09;4067702;29;20288;-67
2023/07/05 08:00:00;;;;;;;3.50;2.17;;;;;;;17.56;73.82;98294.53;4067614;29;20291;-69
2023/07/05 08:02:06;;;;;;;2.42;1.95;;;;;;;17.78;70.02;98303.06;4071608;29;20767;-67
2023/07/05 08:04:10;;;;;;;1.98;1.63;;;;;;;17.60;67.67;98314.97;4072709;29;20235;-67
2023/07/05 08:06:13;;;;;;;3.45;2.03;;;;;;;17.94;66.18;98310.00;4059866;29;20608;-66
2023/07/05 08:08:15;;;;;;;2.22;2.03;;;;;;;18.16;63.63;98304.59;4071570;29;20653;-67
2023/07/05 08:10:20;;;;;;;2.30;1.88;;;;;;;17.66;63.55;98303.50;4070853;29;20239;-65
2023/07/05 08:12:22;;;;;;;3.35;2.10;;;;;;;17.85;64.42;98317.34;4059573;29;20269;-68
2023/07/05 08:14:24;;;;;;;2.83;1.75;;;;;;;17.91;64.26;98311.41;4071990;29;20205;-67
2023/07/05 08:16:26;;;;;;;6.22;1.83;;;;;;;17.92;65.56;98312.25;4071911;29;20615;-69
2023/07/05 08:18:28;;;;;;;2.80;2.22;;;;;;;17.74;65.33;98315.84;4070181;29;20259;-67
2023/07/05 08:20:30;;;;;;;2.22;1.70;;;;;;;17.98;65.96;98319.34;4056533;29;20235;-67
2023/07/05 08:22:32;;;;;;;2.30;1.58;;;;;;;17.83;66.36;98319.56;4071165;29;20267;-67
2023/07/05 08:24:33;;;;;;;3.28;2.20;;;;;;;17.54;66.05;98327.22;4070323;29;20673;-66
2023/07/05 08:26:35;;;;;;;2.72;1.67;;;;;;;17.39;67.82;98328.25;4070805;29;20304;-67
2023/07/05 08:28:37;;;;;;;7.97;2.35;;;;;;;17.43;68.57;98328.50;4071058;29;20324;-67
2023/07/05 08:30:40;;;;;;;5.60;1.85;;;;;;;17.80;68.60;98323.75;4073554;29;20232;-66
2023/07/05 08:32:41;;;;;;;4.15;2.17;;;;;;;17.82;67.06;98329.84;4054165;29;20269;-67
2023/07/05 08:34:43;;;;;;;2.17;1.80;;;;;;;17.95;67.42;98334.63;4071282;29;20216;-68
2023/07/05 08:36:46;;;;;;;2.08;1.88;;;;;;;17.80;67.04;98332.06;4070229;29;20212;-68
2023/07/05 08:38:50;;;;;;;1.92;1.67;;;;;;;18.03;69.34;98330.31;4074805;29;20283;-68
2023/07/05 08:40:54;;;;;;;3.65;1.85;;;;;;;18.01;66.63;98341.72;4070018;29;20243;-67
2023/07/05 08:43:02;;;;;;;2.40;2.05;;;;;;;18.57;67.85;98338.81;4070979;29;20304;-68
2023/07/05 08:45:13;;;;;;;2.22;1.60;;;;;;;18.69;64.70;98339.13;4070686;29;20209;-68
2023/07/05 08:47:26;;;;;;;9.27;2.13;;;;;;;19.03;61.76;98350.63;4071582;29;21031;-68
2023/07/05 08:49:37;;;;;;;3.03;1.92;;;;;;;19.49;60.50;98354.13;4068132;29;20236;-67
2023/07/05 08:51:43;;;;;;;3.55;1.60;;;;;;;19.70;58.82;98360.84;4061091;29;20243;-69
2023/07/05 08:53:51;;;;;;;2.70;1.95;;;;;;;19.09;58.60;98358.56;4072682;29;20275;-67
2023/07/05 08:56:00;;;;;;;3.97;1.50;;;;;;;19.42;59.54;98370.38;4072849;29;20239;-67
2023/07/05 08:58:02;;;;;;;1.90;1.40;;;;;;;19.59;58.32;98360.25;4074169;29;20228;-68
2023/07/05 09:00:11;;;;;;;2.13;1.60;;;;;;;19.71;57.52;98379.19;4062490;29;20356;-68
2023/07/05 09:02:15;;;;;;;3.42;1.20;;;;;;;19.74;56.77;98370.22;4058862;29;20202;-67
2023/07/05 09:04:23;;;;;;;2.88;1.30;;;;;;;19.30;56.37;98383.94;4058381;29;20244;-67
2023/07/05 09:06:30;;;;;;;2.13;1.60;;;;;;;19.27;58.48;98376.25;4073202;29;20212;-67
2023/07/05 09:08:42;;;;;;;2.40;1.42;;;;;;;19.01;59.82;98386.19;4071526;29;20203;-68
2023/07/05 09:10:53;;;;;;;3.42;1.88;;;;;;;18.73;59.76;98384.53;4071200;29;20235;-66
2023/07/05 09:13:15;;;;;;;1.42;1.30;;;;;;;18.88;59.79;98398.09;4072344;29;20205;-70
2023/07/05 09:15:23;;;;;;;2.10;1.30;;;;;;;18.72;60.14;98402.28;4079920;29;20275;-67
2023/07/05 09:17:50;;;;;;;2.58;1.13;;;;;;;18.61;58.82;98404.44;4070157;29;20707;-68
2023/07/05 09:20:10;;;;;;;2.10;1.23;;;;;;;18.96;61.04;98405.69;4073053;29;20206;-67
2023/07/05 09:22:17;;;;;;;1.40;1.17;;;;;;;19.20;59.82;98412.75;4072835;29;20641;-67
2023/07/05 09:24:28;;;;;;;1.92;1.42;;;;;;;19.48;58.26;98410.78;4072003;29;20219;-67
2023/07/05 09:26:35;;;;;;;2.00;1.40;;;;;;;19.92;57.61;98413.69;4076026;29;20348;-66
2023/07/05 09:28:42;;;;;;;3.67;1.70;;;;;;;19.93;56.74;98412.56;4071857;29;20211;-66
2023/07/05 09:30:44;;;;;;;2.20;1.10;;;;;;;19.91;56.71;98414.84;4054286;29;20320;-66
2023/07/05 09:33:00;;;;;;;2.47;1.20;;;;;;;19.13;58.25;98417.03;4054141;29;20209;-66
2023/07/05 09:35:02;;;;;;;2.17;1.00;;;;;;;19.12;58.58;98423.72;4072400;29;20212;-66
2023/07/05 09:37:17;;;;;;;3.25;1.15;;;;;;;19.69;59.32;98432.25;4072386;29;20212;-66
2023/07/05 09:39:35;;;;;;;1.23;0.93;;;;;;;20.37;57.45;98432.09;4076336;29;20264;-67
2023/07/05 09:41:48;;;;;;;2.40;1.25;;;;;;;20.53;56.36;98436.97;4072864;29;20770;-66